Sadorus, Illinois
Current Conditions -  °F | °C
As of 9:53 AM on Friday 24 Oct 2014 (Local Time) from KCMI Reporting Station
Clear Clear  
Wind Chill: 56°   Ceiling: Unl
Heat Index: 56°   Visibility: 10mi
Dew Point: 50°   Wind: 3mph
Humidity: 80%   Direction: 230°SW
Pressure: 30.1"   Gusts: NA
Location:  39.97°N, 88.35°W
Report Text: KCMI 241453Z 23003KT 10SM CLR 13/10 A3010 RMK AO2 SLP194 T01330100 50006 $
Loading
Personal Weather Stations






























Interactive Weather Map
Tropical Storm Tracking
New forecast layout! Learn more

10-Day Weather Forecast

Advertisements
Track Severe Weather on mobile